ASX276 EHAM-LOWW
Flight info
| Callsign | ASX276 |
|---|---|
| Flight time | 1h 17m |
| Altitude | 37000 |
| Route | ARNEM L620 HMM DCT NOMKA DCT OMELO DCT EVIKU DCT BITSI DCT MIKOV MIKOV8W |
| Aircraft | C750/M-SBDE3FGHRWXY/S |
Departure
| Time | 2026-05-05 20:02 |
|---|---|
| Airport | Amsterdam Airport Schiphol (EHAM) |
Arrival
| Time | 2026-05-05 21:19 |
|---|---|
| Airport | Vienna International Airport (LOWW) |
| Time | Latitude | Longitude | Altitude | Speed | Heading |
|---|---|---|---|---|---|
| 2026-05-05 19:30 | 52.31157 | 4.80387 | -8 ft | 0 kts | 311° |
| 2026-05-05 19:52 | 52.31155 | 4.80391 | -8 ft | 2 kts | 309° |
| 2026-05-05 19:52 | 52.31145 | 4.80409 | -8 ft | 2 kts | 312° |
| 2026-05-05 19:53 | 52.31134 | 4.80429 | -8 ft | 2 kts | 262° |
| 2026-05-05 19:53 | 52.31139 | 4.80446 | -8 ft | 0 kts | 216° |
| 2026-05-05 19:53 | 52.31137 | 4.80444 | -8 ft | 2 kts | 216° |
| 2026-05-05 19:53 | 52.31114 | 4.80409 | -8 ft | 7 kts | 223° |
| 2026-05-05 19:54 | 52.31062 | 4.80333 | -8 ft | 12 kts | 224° |
| 2026-05-05 19:54 | 52.31056 | 4.80235 | -8 ft | 9 kts | 293° |
| 2026-05-05 19:54 | 52.31037 | 4.80127 | -8 ft | 12 kts | 221° |
| 2026-05-05 19:54 | 52.30965 | 4.80022 | -8 ft | 15 kts | 221° |
| 2026-05-05 19:55 | 52.30879 | 4.79899 | -8 ft | 18 kts | 221° |
| 2026-05-05 19:55 | 52.30779 | 4.79756 | -8 ft | 20 kts | 220° |
| 2026-05-05 19:55 | 52.30666 | 4.79595 | -8 ft | 23 kts | 220° |
| 2026-05-05 19:55 | 52.30540 | 4.79415 | -8 ft | 25 kts | 220° |
| 2026-05-05 19:56 | 52.30401 | 4.79215 | -8 ft | 28 kts | 222° |
| 2026-05-05 19:56 | 52.30256 | 4.79007 | -8 ft | 27 kts | 221° |
| 2026-05-05 19:56 | 52.30117 | 4.78809 | -8 ft | 26 kts | 221° |
| 2026-05-05 19:56 | 52.30049 | 4.78612 | -8 ft | 19 kts | 301° |
| 2026-05-05 19:57 | 52.30060 | 4.78590 | -8 ft | 0 kts | 311° |
| 2026-05-05 20:00 | 52.30061 | 4.78589 | -8 ft | 2 kts | 311° |
| 2026-05-05 20:00 | 52.30085 | 4.78545 | -8 ft | 9 kts | 312° |
| 2026-05-05 20:01 | 52.30152 | 4.78516 | -8 ft | 14 kts | 40° |
| 2026-05-05 20:01 | 52.30268 | 4.78679 | -9 ft | 50 kts | 41° |
| 2026-05-05 20:01 | 52.30793 | 4.79422 | -2 ft | 136 kts | 40° |
| 2026-05-05 20:01 | 52.31510 | 4.80462 | 589 ft | 133 kts | 40° |
| 2026-05-05 20:02 | 52.32103 | 4.81620 | 1235 ft | 142 kts | 58° |
| 2026-05-05 20:02 | 52.32391 | 4.83288 | 1723 ft | 160 kts | 81° |
| 2026-05-05 20:02 | 52.32223 | 4.85089 | 2497 ft | 166 kts | 104° |
| 2026-05-05 20:02 | 52.31699 | 4.86805 | 3209 ft | 170 kts | 110° |
| 2026-05-05 20:03 | 52.31170 | 4.88550 | 3933 ft | 172 kts | 109° |
| 2026-05-05 20:03 | 52.30638 | 4.90314 | 4677 ft | 174 kts | 110° |
| 2026-05-05 20:03 | 52.30249 | 4.92184 | 5349 ft | 175 kts | 99° |
| 2026-05-05 20:03 | 52.29930 | 4.94132 | 6035 ft | 180 kts | 102° |
| 2026-05-05 20:04 | 52.29582 | 4.96140 | 6657 ft | 187 kts | 104° |
| 2026-05-05 20:04 | 52.29223 | 4.98188 | 7394 ft | 189 kts | 103° |
| 2026-05-05 20:04 | 52.28845 | 5.00374 | 7844 ft | 213 kts | 103° |
| 2026-05-05 20:04 | 52.28414 | 5.02864 | 8305 ft | 242 kts | 104° |
| 2026-05-05 20:05 | 52.27927 | 5.05650 | 8893 ft | 267 kts | 104° |
| 2026-05-05 20:05 | 52.27395 | 5.08693 | 9475 ft | 287 kts | 105° |
| 2026-05-05 20:05 | 52.26842 | 5.11851 | 10324 ft | 295 kts | 105° |
| 2026-05-05 20:05 | 52.26257 | 5.15197 | 10622 ft | 320 kts | 105° |
| 2026-05-05 20:06 | 52.25620 | 5.18837 | 10757 ft | 347 kts | 105° |
| 2026-05-05 20:06 | 52.24942 | 5.22687 | 11329 ft | 354 kts | 105° |
| 2026-05-05 20:06 | 52.24347 | 5.26595 | 12040 ft | 358 kts | 98° |
| 2026-05-05 20:06 | 52.24134 | 5.30659 | 12741 ft | 361 kts | 93° |
| 2026-05-05 20:07 | 52.23978 | 5.34774 | 13495 ft | 365 kts | 93° |
| 2026-05-05 20:07 | 52.23772 | 5.38916 | 14167 ft | 368 kts | 95° |
| 2026-05-05 20:07 | 52.23534 | 5.43095 | 14810 ft | 372 kts | 95° |
| 2026-05-05 20:07 | 52.23317 | 5.47292 | 15561 ft | 371 kts | 94° |
| 2026-05-05 20:08 | 52.23102 | 5.51509 | 16205 ft | 375 kts | 96° |
| 2026-05-05 20:08 | 52.22406 | 5.55625 | 16770 ft | 379 kts | 111° |
| 2026-05-05 20:08 | 52.21415 | 5.59549 | 17521 ft | 381 kts | 112° |
| 2026-05-05 20:08 | 52.20429 | 5.63584 | 18213 ft | 385 kts | 111° |
| 2026-05-05 20:09 | 52.19461 | 5.67665 | 18827 ft | 389 kts | 112° |
| 2026-05-05 20:09 | 52.18465 | 5.71787 | 19469 ft | 392 kts | 113° |
| 2026-05-05 20:09 | 52.17442 | 5.75934 | 20108 ft | 397 kts | 113° |
| 2026-05-05 20:09 | 52.16410 | 5.80133 | 20733 ft | 401 kts | 113° |
| 2026-05-05 20:10 | 52.15377 | 5.84379 | 21359 ft | 405 kts | 114° |
| 2026-05-05 20:10 | 52.14330 | 5.88668 | 21985 ft | 410 kts | 114° |
| 2026-05-05 20:10 | 52.13265 | 5.92991 | 22646 ft | 412 kts | 114° |
| 2026-05-05 20:10 | 52.12198 | 5.97315 | 23409 ft | 413 kts | 114° |
| 2026-05-05 20:11 | 52.11123 | 6.01675 | 23920 ft | 417 kts | 114° |
| 2026-05-05 20:11 | 52.10053 | 6.06071 | 24456 ft | 420 kts | 113° |
| 2026-05-05 20:11 | 52.09324 | 6.10703 | 24948 ft | 426 kts | 102° |
| 2026-05-05 20:11 | 52.08848 | 6.15473 | 25480 ft | 429 kts | 102° |
| 2026-05-05 20:12 | 52.08349 | 6.20275 | 26013 ft | 432 kts | 102° |
| 2026-05-05 20:12 | 52.07833 | 6.25100 | 26542 ft | 435 kts | 102° |
| 2026-05-05 20:12 | 52.07323 | 6.29960 | 27063 ft | 438 kts | 102° |
| 2026-05-05 20:12 | 52.06816 | 6.34857 | 27590 ft | 441 kts | 102° |
| 2026-05-05 20:13 | 52.06298 | 6.39786 | 28118 ft | 444 kts | 103° |
| 2026-05-05 20:13 | 52.05770 | 6.44732 | 28710 ft | 445 kts | 103° |
| 2026-05-05 20:13 | 52.05239 | 6.49710 | 29232 ft | 449 kts | 103° |
| 2026-05-05 20:13 | 52.04707 | 6.54713 | 29759 ft | 451 kts | 103° |
| 2026-05-05 20:14 | 52.04166 | 6.59758 | 30224 ft | 454 kts | 103° |
| 2026-05-05 20:14 | 52.03619 | 6.64824 | 30660 ft | 457 kts | 103° |
| 2026-05-05 20:14 | 52.03069 | 6.69910 | 31206 ft | 456 kts | 103° |
| 2026-05-05 20:14 | 52.02522 | 6.74962 | 31896 ft | 453 kts | 104° |
| 2026-05-05 20:15 | 52.01823 | 6.79922 | 32474 ft | 449 kts | 108° |
| 2026-05-05 20:15 | 52.01300 | 6.83158 | 32903 ft | 448 kts | 109° |
| 2026-05-05 20:15 | 52.00526 | 6.88040 | 33575 ft | 446 kts | 109° |
| 2026-05-05 20:15 | 51.99770 | 6.92910 | 34151 ft | 444 kts | 108° |
| 2026-05-05 20:16 | 51.99004 | 6.97780 | 34555 ft | 446 kts | 109° |
| 2026-05-05 20:16 | 51.98221 | 7.02666 | 34958 ft | 449 kts | 109° |
| 2026-05-05 20:16 | 51.97435 | 7.07568 | 35363 ft | 451 kts | 108° |
| 2026-05-05 20:16 | 51.96613 | 7.12479 | 35758 ft | 452 kts | 110° |
| 2026-05-05 20:17 | 51.95700 | 7.17367 | 36171 ft | 454 kts | 110° |
| 2026-05-05 20:17 | 51.94791 | 7.22286 | 36598 ft | 456 kts | 110° |
| 2026-05-05 20:17 | 51.93885 | 7.27215 | 37033 ft | 458 kts | 110° |
| 2026-05-05 20:17 | 51.92964 | 7.32173 | 37479 ft | 460 kts | 110° |
| 2026-05-05 20:18 | 51.92028 | 7.37168 | 37937 ft | 462 kts | 110° |
| 2026-05-05 20:18 | 51.91100 | 7.42122 | 38403 ft | 464 kts | 110° |
| 2026-05-05 20:18 | 51.90165 | 7.47123 | 38766 ft | 464 kts | 109° |
| 2026-05-05 20:18 | 51.89217 | 7.52171 | 38822 ft | 475 kts | 110° |
| 2026-05-05 20:19 | 51.88239 | 7.57344 | 38822 ft | 486 kts | 109° |
| 2026-05-05 20:19 | 51.86223 | 7.68014 | 38836 ft | 506 kts | 109° |
| 2026-05-05 20:20 | 51.84526 | 7.79269 | 38838 ft | 524 kts | 104° |
| 2026-05-05 20:20 | 51.83027 | 7.90836 | 38827 ft | 526 kts | 105° |
| 2026-05-05 20:21 | 51.81414 | 8.02389 | 38818 ft | 528 kts | 104° |
| 2026-05-05 20:21 | 51.79861 | 8.13983 | 38819 ft | 528 kts | 105° |
| 2026-05-05 20:22 | 51.78245 | 8.25538 | 38815 ft | 528 kts | 105° |
| 2026-05-05 20:22 | 51.76661 | 8.37042 | 38797 ft | 528 kts | 105° |
| 2026-05-05 20:23 | 51.75034 | 8.48605 | 38802 ft | 528 kts | 105° |
| 2026-05-05 20:23 | 51.73409 | 8.60158 | 38802 ft | 528 kts | 105° |
| 2026-05-05 20:24 | 51.71763 | 8.71703 | 38804 ft | 528 kts | 105° |
| 2026-05-05 20:24 | 51.70108 | 8.83274 | 38804 ft | 531 kts | 105° |
| 2026-05-05 20:25 | 51.68435 | 8.94847 | 38802 ft | 530 kts | 105° |
| 2026-05-05 20:25 | 51.66752 | 9.06422 | 38801 ft | 530 kts | 105° |
| 2026-05-05 20:26 | 51.65059 | 9.17973 | 38792 ft | 530 kts | 106° |
| 2026-05-05 20:26 | 51.63356 | 9.29511 | 38792 ft | 530 kts | 106° |
| 2026-05-05 20:27 | 51.61640 | 9.41042 | 38800 ft | 530 kts | 106° |
| 2026-05-05 20:27 | 51.59913 | 9.52573 | 38801 ft | 530 kts | 106° |
| 2026-05-05 20:28 | 51.58175 | 9.64090 | 38801 ft | 530 kts | 106° |
| 2026-05-05 20:28 | 51.56427 | 9.75585 | 38789 ft | 530 kts | 107° |
| 2026-05-05 20:29 | 51.54676 | 9.87025 | 38784 ft | 530 kts | 107° |
| 2026-05-05 20:29 | 51.52903 | 9.98522 | 38781 ft | 530 kts | 107° |
| 2026-05-05 20:30 | 51.51120 | 10.10005 | 38778 ft | 530 kts | 107° |
| 2026-05-05 20:30 | 51.49327 | 10.21471 | 38780 ft | 529 kts | 107° |
| 2026-05-05 20:31 | 51.47526 | 10.32903 | 38778 ft | 529 kts | 107° |
| 2026-05-05 20:31 | 51.45712 | 10.44340 | 38779 ft | 529 kts | 107° |
| 2026-05-05 20:32 | 51.43892 | 10.55772 | 38783 ft | 529 kts | 107° |
| 2026-05-05 20:32 | 51.42096 | 10.67200 | 38785 ft | 529 kts | 108° |
| 2026-05-05 20:33 | 51.40270 | 10.78603 | 38779 ft | 529 kts | 108° |
| 2026-05-05 20:33 | 51.38444 | 10.90010 | 38780 ft | 529 kts | 108° |
| 2026-05-05 20:34 | 51.36601 | 11.01400 | 38781 ft | 529 kts | 108° |
| 2026-05-05 20:34 | 51.34747 | 11.12793 | 38781 ft | 530 kts | 108° |
| 2026-05-05 20:35 | 51.32881 | 11.24191 | 38784 ft | 530 kts | 108° |
| 2026-05-05 20:35 | 51.31004 | 11.35566 | 38780 ft | 529 kts | 108° |
| 2026-05-05 20:36 | 51.29117 | 11.46940 | 38780 ft | 530 kts | 108° |
| 2026-05-05 20:36 | 51.27213 | 11.58318 | 38776 ft | 532 kts | 109° |
| 2026-05-05 20:37 | 51.25298 | 11.69712 | 38772 ft | 531 kts | 109° |
| 2026-05-05 20:37 | 51.23382 | 11.81019 | 38772 ft | 531 kts | 109° |
| 2026-05-05 20:38 | 51.21446 | 11.92382 | 38770 ft | 531 kts | 109° |
| 2026-05-05 20:38 | 51.19496 | 12.03746 | 38771 ft | 532 kts | 109° |
| 2026-05-05 20:39 | 51.17534 | 12.15113 | 38759 ft | 531 kts | 109° |
| 2026-05-05 20:39 | 51.15582 | 12.26345 | 38784 ft | 526 kts | 110° |
| 2026-05-05 20:40 | 51.13617 | 12.37569 | 38793 ft | 526 kts | 110° |
| 2026-05-05 20:40 | 51.11642 | 12.48811 | 38804 ft | 529 kts | 110° |
| 2026-05-05 20:41 | 51.09648 | 12.60062 | 38798 ft | 528 kts | 110° |
| 2026-05-05 20:41 | 51.07646 | 12.71303 | 38793 ft | 528 kts | 110° |
| 2026-05-05 20:42 | 51.05632 | 12.82525 | 38784 ft | 528 kts | 110° |
| 2026-05-05 20:42 | 51.03603 | 12.93770 | 38775 ft | 531 kts | 110° |
| 2026-05-05 20:43 | 51.01559 | 13.05028 | 38762 ft | 531 kts | 110° |
| 2026-05-05 20:43 | 50.99502 | 13.16286 | 38753 ft | 531 kts | 110° |
| 2026-05-05 20:44 | 50.97436 | 13.27532 | 38758 ft | 530 kts | 110° |
| 2026-05-05 20:44 | 50.95355 | 13.38766 | 38756 ft | 533 kts | 110° |
| 2026-05-05 20:45 | 50.92219 | 13.55603 | 38761 ft | 533 kts | 110° |
| 2026-05-05 20:45 | 50.90102 | 13.66867 | 38761 ft | 533 kts | 110° |
| 2026-05-05 20:46 | 50.87979 | 13.78113 | 38760 ft | 533 kts | 110° |
| 2026-05-05 20:46 | 50.85843 | 13.89351 | 38754 ft | 533 kts | 110° |
| 2026-05-05 20:47 | 50.82901 | 13.99964 | 38747 ft | 523 kts | 126° |
| 2026-05-05 20:47 | 50.78269 | 14.08619 | 38747 ft | 512 kts | 142° |
| 2026-05-05 20:48 | 50.72819 | 14.15836 | 38734 ft | 510 kts | 144° |
| 2026-05-05 20:48 | 50.67606 | 14.23449 | 38741 ft | 511 kts | 140° |
| 2026-05-05 20:49 | 50.62356 | 14.30978 | 38732 ft | 509 kts | 143° |
| 2026-05-05 20:49 | 50.57088 | 14.38455 | 38733 ft | 511 kts | 141° |
| 2026-05-05 20:50 | 50.51845 | 14.45992 | 38731 ft | 510 kts | 142° |
| 2026-05-05 20:50 | 50.46559 | 14.53434 | 38733 ft | 510 kts | 141° |
| 2026-05-05 20:51 | 50.41443 | 14.61221 | 38721 ft | 512 kts | 140° |
| 2026-05-05 20:51 | 50.36305 | 14.68970 | 38730 ft | 513 kts | 140° |
| 2026-05-05 20:52 | 50.31181 | 14.76732 | 38716 ft | 513 kts | 140° |
| 2026-05-05 20:52 | 50.26045 | 14.84459 | 38714 ft | 512 kts | 140° |
| 2026-05-05 20:53 | 50.20881 | 14.92213 | 38713 ft | 517 kts | 140° |
| 2026-05-05 20:53 | 50.15680 | 15.00002 | 38722 ft | 519 kts | 140° |
| 2026-05-05 20:54 | 50.10467 | 15.07778 | 38726 ft | 518 kts | 140° |
| 2026-05-05 20:54 | 50.05253 | 15.15533 | 38728 ft | 519 kts | 140° |
| 2026-05-05 20:55 | 50.00029 | 15.23278 | 38728 ft | 520 kts | 140° |
| 2026-05-05 20:55 | 49.97425 | 15.27132 | 38418 ft | 509 kts | 140° |
| 2026-05-05 20:55 | 49.94907 | 15.30862 | 37697 ft | 491 kts | 140° |
| 2026-05-05 20:56 | 49.92474 | 15.34449 | 37061 ft | 473 kts | 140° |
| 2026-05-05 20:56 | 49.90130 | 15.37893 | 36452 ft | 457 kts | 140° |
| 2026-05-05 20:56 | 49.87842 | 15.41251 | 35859 ft | 450 kts | 140° |
| 2026-05-05 20:56 | 49.85570 | 15.44586 | 35269 ft | 450 kts | 140° |
| 2026-05-05 20:57 | 49.83294 | 15.47923 | 34667 ft | 451 kts | 140° |
| 2026-05-05 20:57 | 49.81016 | 15.51261 | 34087 ft | 451 kts | 139° |
| 2026-05-05 20:57 | 49.78737 | 15.54596 | 33458 ft | 451 kts | 139° |
| 2026-05-05 20:57 | 49.76453 | 15.57929 | 32861 ft | 454 kts | 139° |
| 2026-05-05 20:58 | 49.74174 | 15.61251 | 32276 ft | 457 kts | 139° |
| 2026-05-05 20:58 | 49.71668 | 15.64320 | 31573 ft | 454 kts | 152° |
| 2026-05-05 20:58 | 49.68796 | 15.66318 | 30974 ft | 453 kts | 161° |
| 2026-05-05 20:58 | 49.65821 | 15.67950 | 30353 ft | 456 kts | 163° |
| 2026-05-05 20:59 | 49.62829 | 15.69555 | 29467 ft | 453 kts | 162° |
| 2026-05-05 20:59 | 49.59982 | 15.71414 | 28512 ft | 448 kts | 157° |
| 2026-05-05 20:59 | 49.57159 | 15.73487 | 27563 ft | 440 kts | 157° |
| 2026-05-05 20:59 | 49.54425 | 15.75336 | 26666 ft | 430 kts | 160° |
| 2026-05-05 21:00 | 49.51670 | 15.77020 | 25782 ft | 422 kts | 160° |
| 2026-05-05 21:00 | 49.48968 | 15.78733 | 24935 ft | 417 kts | 159° |
| 2026-05-05 21:00 | 49.46335 | 15.80516 | 24268 ft | 408 kts | 158° |
| 2026-05-05 21:00 | 49.43740 | 15.82250 | 23746 ft | 408 kts | 159° |
| 2026-05-05 21:01 | 49.41106 | 15.83934 | 23192 ft | 410 kts | 159° |
| 2026-05-05 21:01 | 49.38488 | 15.85613 | 22634 ft | 407 kts | 159° |
| 2026-05-05 21:01 | 49.35894 | 15.87314 | 22097 ft | 404 kts | 159° |
| 2026-05-05 21:01 | 49.33319 | 15.89003 | 21568 ft | 401 kts | 159° |
| 2026-05-05 21:02 | 49.30759 | 15.90659 | 21036 ft | 398 kts | 159° |
| 2026-05-05 21:02 | 49.29071 | 15.91746 | 20686 ft | 396 kts | 159° |
| 2026-05-05 21:02 | 49.26542 | 15.93384 | 20174 ft | 394 kts | 158° |
| 2026-05-05 21:02 | 49.24029 | 15.95015 | 19650 ft | 391 kts | 158° |
| 2026-05-05 21:03 | 49.21530 | 15.96631 | 19142 ft | 388 kts | 159° |
| 2026-05-05 21:03 | 49.19050 | 15.98229 | 18626 ft | 385 kts | 159° |
| 2026-05-05 21:03 | 49.16588 | 15.99816 | 18126 ft | 383 kts | 159° |
| 2026-05-05 21:03 | 49.14145 | 16.01391 | 17585 ft | 380 kts | 159° |
| 2026-05-05 21:04 | 49.11719 | 16.02952 | 17084 ft | 377 kts | 159° |
| 2026-05-05 21:04 | 49.09309 | 16.04501 | 16590 ft | 375 kts | 159° |
| 2026-05-05 21:04 | 49.06917 | 16.06036 | 16091 ft | 372 kts | 159° |
| 2026-05-05 21:04 | 49.04540 | 16.07562 | 15604 ft | 368 kts | 159° |
| 2026-05-05 21:05 | 49.02181 | 16.09073 | 15119 ft | 366 kts | 159° |
| 2026-05-05 21:05 | 48.99839 | 16.10572 | 14636 ft | 364 kts | 159° |
| 2026-05-05 21:05 | 48.97508 | 16.12063 | 14158 ft | 362 kts | 159° |
| 2026-05-05 21:05 | 48.95191 | 16.13543 | 13679 ft | 360 kts | 159° |
| 2026-05-05 21:06 | 48.92888 | 16.15012 | 13177 ft | 358 kts | 159° |
| 2026-05-05 21:06 | 48.90601 | 16.16470 | 12685 ft | 356 kts | 159° |
| 2026-05-05 21:06 | 48.88327 | 16.17918 | 12231 ft | 353 kts | 159° |
| 2026-05-05 21:06 | 48.86069 | 16.19356 | 11763 ft | 351 kts | 159° |
| 2026-05-05 21:07 | 48.83823 | 16.20784 | 11302 ft | 349 kts | 159° |
| 2026-05-05 21:07 | 48.81603 | 16.22194 | 10838 ft | 337 kts | 159° |
| 2026-05-05 21:07 | 48.79512 | 16.23521 | 10410 ft | 315 kts | 159° |
| 2026-05-05 21:07 | 48.77547 | 16.24766 | 10005 ft | 299 kts | 159° |
| 2026-05-05 21:08 | 48.75651 | 16.25964 | 9612 ft | 293 kts | 158° |
| 2026-05-05 21:08 | 48.73784 | 16.27145 | 9212 ft | 290 kts | 158° |
| 2026-05-05 21:08 | 48.71933 | 16.28317 | 8829 ft | 287 kts | 158° |
| 2026-05-05 21:08 | 48.70092 | 16.29480 | 8449 ft | 286 kts | 158° |
| 2026-05-05 21:09 | 48.68268 | 16.30632 | 8078 ft | 281 kts | 160° |
| 2026-05-05 21:09 | 48.66486 | 16.31757 | 7706 ft | 275 kts | 160° |
| 2026-05-05 21:09 | 48.64721 | 16.32866 | 7341 ft | 274 kts | 160° |
| 2026-05-05 21:09 | 48.62964 | 16.33974 | 6981 ft | 273 kts | 159° |
| 2026-05-05 21:10 | 48.61212 | 16.35077 | 6623 ft | 272 kts | 159° |
| 2026-05-05 21:10 | 48.59483 | 16.36164 | 6287 ft | 274 kts | 159° |
| 2026-05-05 21:10 | 48.57726 | 16.37269 | 5964 ft | 271 kts | 159° |
| 2026-05-05 21:10 | 48.55976 | 16.38366 | 5762 ft | 278 kts | 160° |
| 2026-05-05 21:11 | 48.54198 | 16.39483 | 5421 ft | 277 kts | 159° |
| 2026-05-05 21:11 | 48.52420 | 16.40595 | 5057 ft | 276 kts | 159° |
| 2026-05-05 21:11 | 48.50615 | 16.41413 | 4992 ft | 270 kts | 167° |
| 2026-05-05 21:11 | 48.48785 | 16.42194 | 4994 ft | 274 kts | 165° |
| 2026-05-05 21:12 | 48.46944 | 16.43014 | 5001 ft | 277 kts | 166° |
| 2026-05-05 21:12 | 48.45097 | 16.43805 | 5008 ft | 275 kts | 168° |
| 2026-05-05 21:12 | 48.43233 | 16.44586 | 5009 ft | 276 kts | 167° |
| 2026-05-05 21:12 | 48.41369 | 16.45299 | 5009 ft | 277 kts | 168° |
| 2026-05-05 21:13 | 48.39512 | 16.46049 | 5011 ft | 275 kts | 166° |
| 2026-05-05 21:13 | 48.37667 | 16.46859 | 5012 ft | 276 kts | 166° |
| 2026-05-05 21:13 | 48.35805 | 16.47668 | 5013 ft | 276 kts | 167° |
| 2026-05-05 21:13 | 48.34094 | 16.48410 | 4982 ft | 245 kts | 167° |
| 2026-05-05 21:14 | 48.32509 | 16.49094 | 4703 ft | 232 kts | 167° |
| 2026-05-05 21:14 | 48.30997 | 16.49744 | 4399 ft | 216 kts | 167° |
| 2026-05-05 21:14 | 48.29669 | 16.50308 | 4123 ft | 189 kts | 169° |
| 2026-05-05 21:14 | 48.28398 | 16.50839 | 3885 ft | 188 kts | 168° |
| 2026-05-05 21:15 | 48.27220 | 16.51348 | 3651 ft | 164 kts | 169° |
| 2026-05-05 21:15 | 48.26134 | 16.51815 | 3448 ft | 153 kts | 170° |
| 2026-05-05 21:15 | 48.25105 | 16.52245 | 3254 ft | 153 kts | 171° |
| 2026-05-05 21:15 | 48.24075 | 16.52680 | 3054 ft | 155 kts | 170° |
| 2026-05-05 21:16 | 48.23050 | 16.53117 | 2850 ft | 151 kts | 170° |
| 2026-05-05 21:16 | 48.22048 | 16.53543 | 2658 ft | 150 kts | 170° |
| 2026-05-05 21:16 | 48.21045 | 16.53969 | 2459 ft | 149 kts | 170° |
| 2026-05-05 21:16 | 48.20069 | 16.54387 | 2261 ft | 142 kts | 171° |
| 2026-05-05 21:17 | 48.19125 | 16.54788 | 2073 ft | 140 kts | 171° |
| 2026-05-05 21:17 | 48.18166 | 16.55192 | 1882 ft | 144 kts | 168° |
| 2026-05-05 21:17 | 48.17210 | 16.55597 | 1695 ft | 142 kts | 167° |
| 2026-05-05 21:17 | 48.16263 | 16.55997 | 1505 ft | 141 kts | 166° |
| 2026-05-05 21:18 | 48.15319 | 16.56396 | 1307 ft | 146 kts | 166° |
| 2026-05-05 21:18 | 48.14426 | 16.56781 | 1131 ft | 117 kts | 165° |
| 2026-05-05 21:18 | 48.13649 | 16.57115 | 965 ft | 119 kts | 166° |
| 2026-05-05 21:18 | 48.12875 | 16.57433 | 811 ft | 111 kts | 164° |
| 2026-05-05 21:19 | 48.12141 | 16.57752 | 688 ft | 108 kts | 164° |
| 2026-05-05 21:19 | 48.11417 | 16.58058 | 612 ft | 102 kts | 164° |
| 2026-05-05 21:19 | 48.10821 | 16.58308 | 614 ft | 67 kts | 165° |
| 2026-05-05 21:19 | 48.10506 | 16.58440 | 605 ft | 40 kts | 164° |
| 2026-05-05 21:20 | 48.10255 | 16.58446 | 609 ft | 34 kts | 193° |
| 2026-05-05 21:20 | 48.10107 | 16.58345 | 616 ft | 14 kts | 236° |
| 2026-05-05 21:20 | 48.10093 | 16.58228 | 611 ft | 11 kts | 286° |
| 2026-05-05 21:20 | 48.10164 | 16.58168 | 616 ft | 12 kts | 345° |
| 2026-05-05 21:21 | 48.10244 | 16.58134 | 611 ft | 12 kts | 343° |
| 2026-05-05 21:21 | 48.10348 | 16.58087 | 615 ft | 19 kts | 344° |
| 2026-05-05 21:21 | 48.10494 | 16.58027 | 610 ft | 23 kts | 344° |
| 2026-05-05 21:21 | 48.10642 | 16.57964 | 611 ft | 22 kts | 343° |
| 2026-05-05 21:22 | 48.10780 | 16.57904 | 614 ft | 20 kts | 344° |
| 2026-05-05 21:22 | 48.10909 | 16.57850 | 617 ft | 19 kts | 345° |
| 2026-05-05 21:22 | 48.11035 | 16.57779 | 613 ft | 19 kts | 318° |
| 2026-05-05 21:22 | 48.11099 | 16.57613 | 621 ft | 19 kts | 296° |
| 2026-05-05 21:23 | 48.11165 | 16.57406 | 618 ft | 26 kts | 295° |
| 2026-05-05 21:23 | 48.11249 | 16.57153 | 618 ft | 27 kts | 296° |
| 2026-05-05 21:23 | 48.11328 | 16.56910 | 620 ft | 26 kts | 296° |
| 2026-05-05 21:23 | 48.11407 | 16.56668 | 617 ft | 26 kts | 296° |
| 2026-05-05 21:24 | 48.11484 | 16.56430 | 613 ft | 25 kts | 295° |
| 2026-05-05 21:24 | 48.11561 | 16.56195 | 620 ft | 25 kts | 296° |
| 2026-05-05 21:24 | 48.11636 | 16.55964 | 614 ft | 24 kts | 296° |
| 2026-05-05 21:24 | 48.11712 | 16.55731 | 612 ft | 25 kts | 296° |
| 2026-05-05 21:25 | 48.11791 | 16.55490 | 615 ft | 26 kts | 296° |
| 2026-05-05 21:25 | 48.11872 | 16.55240 | 607 ft | 27 kts | 296° |
| 2026-05-05 21:25 | 48.11956 | 16.54982 | 610 ft | 28 kts | 296° |
| 2026-05-05 21:25 | 48.12043 | 16.54717 | 609 ft | 29 kts | 296° |
| 2026-05-05 21:26 | 48.12131 | 16.54444 | 602 ft | 30 kts | 296° |
| 2026-05-05 21:26 | 48.12222 | 16.54163 | 601 ft | 30 kts | 295° |
| 2026-05-05 21:26 | 48.12316 | 16.53875 | 599 ft | 31 kts | 296° |
| 2026-05-05 21:26 | 48.12405 | 16.53632 | 598 ft | 18 kts | 334° |
| 2026-05-05 21:27 | 48.12522 | 16.53638 | 597 ft | 17 kts | 24° |
| 2026-05-05 21:27 | 48.12618 | 16.53705 | 597 ft | 12 kts | 26° |
| 2026-05-05 21:27 | 48.12687 | 16.53734 | 597 ft | 8 kts | 315° |
| 2026-05-05 21:27 | 48.12693 | 16.53715 | 597 ft | 1 kts | 297° |
| 2026-05-05 21:28 | 48.12693 | 16.53714 | 597 ft | 0 kts | 297° |